sensor_id;sensor_type;location;lat;lon;timestamp;P1;durP1;ratioP1;P2;durP2;ratioP2
11427;SDS011;5770;44.504;11.346;2023-04-01T00:00:59;8.40;;;6.32;;
11427;SDS011;5770;44.504;11.346;2023-04-01T00:03:27;8.93;;;6.43;;
11427;SDS011;5770;44.504;11.346;2023-04-01T00:06:00;9.35;;;5.88;;
11427;SDS011;5770;44.504;11.346;2023-04-01T00:08:30;10.25;;;5.82;;
11427;SDS011;5770;44.504;11.346;2023-04-01T00:10:59;11.07;;;6.82;;
11427;SDS011;5770;44.504;11.346;2023-04-01T00:13:32;11.48;;;6.22;;
11427;SDS011;5770;44.504;11.346;2023-04-01T00:19:33;11.38;;;6.68;;
11427;SDS011;5770;44.504;11.346;2023-04-01T00:22:02;9.25;;;6.43;;
11427;SDS011;5770;44.504;11.346;2023-04-01T00:24:43;10.60;;;6.45;;
11427;SDS011;5770;44.504;11.346;2023-04-01T00:29:57;8.80;;;5.63;;
11427;SDS011;5770;44.504;11.346;2023-04-01T00:32:24;9.70;;;6.00;;
11427;SDS011;5770;44.504;11.346;2023-04-01T00:34:52;10.23;;;6.47;;
11427;SDS011;5770;44.504;11.346;2023-04-01T00:37:19;9.00;;;6.43;;
11427;SDS011;5770;44.504;11.346;2023-04-01T00:39:47;9.13;;;6.43;;
11427;SDS011;5770;44.504;11.346;2023-04-01T00:42:15;10.70;;;6.80;;
11427;SDS011;5770;44.504;11.346;2023-04-01T00:44:47;8.43;;;6.47;;
11427;SDS011;5770;44.504;11.346;2023-04-01T00:47:16;12.10;;;7.03;;
11427;SDS011;5770;44.504;11.346;2023-04-01T00:49:44;8.95;;;6.15;;
11427;SDS011;5770;44.504;11.346;2023-04-01T00:52:14;11.98;;;6.75;;
11427;SDS011;5770;44.504;11.346;2023-04-01T00:54:44;10.32;;;6.45;;
11427;SDS011;5770;44.504;11.346;2023-04-01T00:57:13;11.05;;;7.07;;
11427;SDS011;5770;44.504;11.346;2023-04-01T00:59:43;9.38;;;7.15;;
11427;SDS011;5770;44.504;11.346;2023-04-01T01:02:13;9.90;;;6.93;;
11427;SDS011;5770;44.504;11.346;2023-04-01T01:04:42;9.43;;;6.97;;
11427;SDS011;5770;44.504;11.346;2023-04-01T01:07:12;9.98;;;6.93;;
11427;SDS011;5770;44.504;11.346;2023-04-01T01:09:52;11.43;;;7.45;;
11427;SDS011;5770;44.504;11.346;2023-04-01T01:12:25;11.77;;;8.10;;
11427;SDS011;5770;44.504;11.346;2023-04-01T01:15:00;9.77;;;7.75;;
11427;SDS011;5770;44.504;11.346;2023-04-01T01:17:36;10.07;;;7.05;;
11427;SDS011;5770;44.504;11.346;2023-04-01T01:20:22;10.93;;;7.25;;
11427;SDS011;5770;44.504;11.346;2023-04-01T01:22:52;14.32;;;7.70;;
11427;SDS011;5770;44.504;11.346;2023-04-01T01:25:34;13.15;;;7.80;;
11427;SDS011;5770;44.504;11.346;2023-04-01T01:28:15;10.35;;;7.63;;
11427;SDS011;5770;44.504;11.346;2023-04-01T01:30:58;9.93;;;8.10;;
11427;SDS011;5770;44.504;11.346;2023-04-01T01:36:12;10.30;;;8.60;;
11427;SDS011;5770;44.504;11.346;2023-04-01T01:38:40;10.52;;;8.75;;
11427;SDS011;5770;44.504;11.346;2023-04-01T01:41:07;13.95;;;8.77;;
11427;SDS011;5770;44.504;11.346;2023-04-01T01:43:38;11.95;;;9.20;;
11427;SDS011;5770;44.504;11.346;2023-04-01T01:46:08;11.05;;;8.50;;
11427;SDS011;5770;44.504;11.346;2023-04-01T01:48:38;11.43;;;9.05;;
11427;SDS011;5770;44.504;11.346;2023-04-01T01:51:08;15.80;;;10.38;;
11427;SDS011;5770;44.504;11.346;2023-04-01T01:53:37;12.38;;;9.70;;
11427;SDS011;5770;44.504;11.346;2023-04-01T01:56:04;12.60;;;10.05;;
11427;SDS011;5770;44.504;11.346;2023-04-01T01:58:32;13.55;;;10.70;;
11427;SDS011;5770;44.504;11.346;2023-04-01T02:01:06;18.70;;;10.38;;
11427;SDS011;5770;44.504;11.346;2023-04-01T02:03:35;14.13;;;10.77;;
11427;SDS011;5770;44.504;11.346;2023-04-01T02:06:03;13.80;;;10.73;;
11427;SDS011;5770;44.504;11.346;2023-04-01T02:08:34;16.63;;;11.10;;
11427;SDS011;5770;44.504;11.346;2023-04-01T02:11:04;13.05;;;11.60;;
11427;SDS011;5770;44.504;11.346;2023-04-01T02:13:35;13.50;;;11.30;;
11427;SDS011;5770;44.504;11.346;2023-04-01T02:16:07;14.52;;;11.60;;
11427;SDS011;5770;44.504;11.346;2023-04-01T02:18:36;15.48;;;11.35;;
11427;SDS011;5770;44.504;11.346;2023-04-01T02:21:04;14.35;;;12.18;;
11427;SDS011;5770;44.504;11.346;2023-04-01T02:23:33;21.00;;;13.60;;
11427;SDS011;5770;44.504;11.346;2023-04-01T02:26:03;19.17;;;13.60;;
11427;SDS011;5770;44.504;11.346;2023-04-01T02:28:32;15.38;;;13.27;;
11427;SDS011;5770;44.504;11.346;2023-04-01T02:31:00;17.17;;;14.32;;
11427;SDS011;5770;44.504;11.346;2023-04-01T02:33:28;21.60;;;13.85;;
11427;SDS011;5770;44.504;11.346;2023-04-01T02:35:57;20.77;;;14.98;;
11427;SDS011;5770;44.504;11.346;2023-04-01T02:38:24;25.40;;;15.98;;
11427;SDS011;5770;44.504;11.346;2023-04-01T02:40:56;26.25;;;15.25;;
11427;SDS011;5770;44.504;11.346;2023-04-01T02:43:26;22.55;;;15.38;;
11427;SDS011;5770;44.504;11.346;2023-04-01T02:45:53;20.85;;;16.05;;
11427;SDS011;5770;44.504;11.346;2023-04-01T02:48:20;24.05;;;16.48;;
11427;SDS011;5770;44.504;11.346;2023-04-01T02:50:47;25.48;;;16.73;;
11427;SDS011;5770;44.504;11.346;2023-04-01T02:53:15;18.95;;;15.75;;
11427;SDS011;5770;44.504;11.346;2023-04-01T02:55:42;25.15;;;17.55;;
11427;SDS011;5770;44.504;11.346;2023-04-01T02:58:10;20.45;;;16.58;;
11427;SDS011;5770;44.504;11.346;2023-04-01T03:00:38;24.13;;;16.67;;
11427;SDS011;5770;44.504;11.346;2023-04-01T03:03:05;24.77;;;16.40;;
11427;SDS011;5770;44.504;11.346;2023-04-01T03:05:32;24.05;;;17.30;;
11427;SDS011;5770;44.504;11.346;2023-04-01T03:07:59;21.45;;;15.95;;
11427;SDS011;5770;44.504;11.346;2023-04-01T03:10:27;20.75;;;16.45;;
11427;SDS011;5770;44.504;11.346;2023-04-01T03:12:54;16.98;;;14.75;;
11427;SDS011;5770;44.504;11.346;2023-04-01T03:15:21;24.52;;;15.93;;
11427;SDS011;5770;44.504;11.346;2023-04-01T03:17:50;18.13;;;15.93;;
11427;SDS011;5770;44.504;11.346;2023-04-01T03:20:17;24.30;;;17.10;;
11427;SDS011;5770;44.504;11.346;2023-04-01T03:22:44;20.20;;;15.98;;
11427;SDS011;5770;44.504;11.346;2023-04-01T03:25:11;21.65;;;15.85;;
11427;SDS011;5770;44.504;11.346;2023-04-01T03:27:39;22.10;;;15.98;;
11427;SDS011;5770;44.504;11.346;2023-04-01T03:30:06;21.40;;;17.60;;
11427;SDS011;5770;44.504;11.346;2023-04-01T03:32:34;22.85;;;16.95;;
11427;SDS011;5770;44.504;11.346;2023-04-01T03:35:03;18.55;;;15.02;;
11427;SDS011;5770;44.504;11.346;2023-04-01T03:37:31;19.50;;;16.55;;
11427;SDS011;5770;44.504;11.346;2023-04-01T03:39:58;21.75;;;16.90;;
11427;SDS011;5770;44.504;11.346;2023-04-01T03:42:25;26.10;;;17.10;;
11427;SDS011;5770;44.504;11.346;2023-04-01T03:44:52;21.30;;;15.85;;
11427;SDS011;5770;44.504;11.346;2023-04-01T03:47:20;20.88;;;17.10;;
11427;SDS011;5770;44.504;11.346;2023-04-01T03:49:46;19.10;;;15.65;;
11427;SDS011;5770;44.504;11.346;2023-04-01T03:52:15;21.58;;;16.70;;
11427;SDS011;5770;44.504;11.346;2023-04-01T03:54:42;20.55;;;16.20;;
11427;SDS011;5770;44.504;11.346;2023-04-01T03:57:09;24.98;;;15.80;;
11427;SDS011;5770;44.504;11.346;2023-04-01T03:59:36;22.17;;;16.15;;
11427;SDS011;5770;44.504;11.346;2023-04-01T04:02:04;22.40;;;16.27;;
11427;SDS011;5770;44.504;11.346;2023-04-01T04:04:31;19.00;;;16.35;;
11427;SDS011;5770;44.504;11.346;2023-04-01T04:06:58;18.50;;;16.08;;
11427;SDS011;5770;44.504;11.346;2023-04-01T04:09:27;20.60;;;16.30;;
11427;SDS011;5770;44.504;11.346;2023-04-01T04:11:54;19.52;;;16.25;;
11427;SDS011;5770;44.504;11.346;2023-04-01T04:14:22;19.13;;;16.85;;
11427;SDS011;5770;44.504;11.346;2023-04-01T04:16:49;22.63;;;16.98;;
11427;SDS011;5770;44.504;11.346;2023-04-01T04:19:16;24.05;;;16.63;;
11427;SDS011;5770;44.504;11.346;2023-04-01T04:21:43;23.35;;;17.27;;
11427;SDS011;5770;44.504;11.346;2023-04-01T04:24:10;22.98;;;16.85;;
11427;SDS011;5770;44.504;11.346;2023-04-01T04:26:39;22.35;;;17.15;;
11427;SDS011;5770;44.504;11.346;2023-04-01T04:29:06;22.40;;;17.58;;
11427;SDS011;5770;44.504;11.346;2023-04-01T04:31:33;25.48;;;17.58;;
11427;SDS011;5770;44.504;11.346;2023-04-01T04:34:00;21.17;;;16.30;;
11427;SDS011;5770;44.504;11.346;2023-04-01T04:36:27;19.65;;;15.48;;
11427;SDS011;5770;44.504;11.346;2023-04-01T04:38:55;18.02;;;16.10;;
11427;SDS011;5770;44.504;11.346;2023-04-01T04:41:23;21.20;;;15.38;;
11427;SDS011;5770;44.504;11.346;2023-04-01T04:43:52;19.30;;;15.32;;
11427;SDS011;5770;44.504;11.346;2023-04-01T04:46:21;16.20;;;14.13;;
11427;SDS011;5770;44.504;11.346;2023-04-01T04:48:48;21.35;;;13.70;;
11427;SDS011;5770;44.504;11.346;2023-04-01T04:51:15;19.50;;;13.90;;
11427;SDS011;5770;44.504;11.346;2023-04-01T04:53:43;18.33;;;14.85;;
11427;SDS011;5770;44.504;11.346;2023-04-01T04:56:10;16.30;;;14.07;;
11427;SDS011;5770;44.504;11.346;2023-04-01T04:58:38;17.35;;;14.95;;
11427;SDS011;5770;44.504;11.346;2023-04-01T05:01:10;17.65;;;14.55;;
11427;SDS011;5770;44.504;11.346;2023-04-01T05:03:38;20.60;;;15.40;;
11427;SDS011;5770;44.504;11.346;2023-04-01T05:06:06;17.83;;;14.55;;
11427;SDS011;5770;44.504;11.346;2023-04-01T05:08:33;17.02;;;13.77;;
11427;SDS011;5770;44.504;11.346;2023-04-01T05:11:02;16.90;;;13.13;;
11427;SDS011;5770;44.504;11.346;2023-04-01T05:13:30;15.95;;;13.68;;
11427;SDS011;5770;44.504;11.346;2023-04-01T05:15:57;15.48;;;12.55;;
11427;SDS011;5770;44.504;11.346;2023-04-01T05:18:26;16.45;;;11.98;;
11427;SDS011;5770;44.504;11.346;2023-04-01T05:20:53;15.30;;;11.45;;
11427;SDS011;5770;44.504;11.346;2023-04-01T05:23:21;18.67;;;11.77;;
11427;SDS011;5770;44.504;11.346;2023-04-01T05:25:48;14.65;;;10.20;;
11427;SDS011;5770;44.504;11.346;2023-04-01T05:28:17;14.63;;;8.82;;
11427;SDS011;5770;44.504;11.346;2023-04-01T05:30:45;12.65;;;8.18;;
11427;SDS011;5770;44.504;11.346;2023-04-01T05:33:12;9.05;;;7.60;;
11427;SDS011;5770;44.504;11.346;2023-04-01T05:35:41;11.60;;;7.78;;
11427;SDS011;5770;44.504;11.346;2023-04-01T05:38:08;14.27;;;7.93;;
11427;SDS011;5770;44.504;11.346;2023-04-01T05:40:35;8.07;;;6.32;;
11427;SDS011;5770;44.504;11.346;2023-04-01T05:43:02;9.48;;;6.18;;
11427;SDS011;5770;44.504;11.346;2023-04-01T05:45:29;8.20;;;6.20;;
11427;SDS011;5770;44.504;11.346;2023-04-01T05:47:57;7.88;;;6.18;;
11427;SDS011;5770;44.504;11.346;2023-04-01T05:50:25;8.32;;;5.30;;
11427;SDS011;5770;44.504;11.346;2023-04-01T05:52:54;7.13;;;5.13;;
11427;SDS011;5770;44.504;11.346;2023-04-01T05:55:21;12.75;;;5.32;;
11427;SDS011;5770;44.504;11.346;2023-04-01T05:57:48;7.05;;;4.80;;
11427;SDS011;5770;44.504;11.346;2023-04-01T06:00:16;6.88;;;4.10;;
11427;SDS011;5770;44.504;11.346;2023-04-01T06:02:44;8.82;;;4.07;;
11427;SDS011;5770;44.504;11.346;2023-04-01T06:05:14;5.40;;;3.88;;
11427;SDS011;5770;44.504;11.346;2023-04-01T06:07:43;6.50;;;4.38;;
11427;SDS011;5770;44.504;11.346;2023-04-01T06:10:15;6.38;;;4.78;;
11427;SDS011;5770;44.504;11.346;2023-04-01T06:12:54;7.68;;;4.70;;
11427;SDS011;5770;44.504;11.346;2023-04-01T06:15:25;8.50;;;5.82;;
11427;SDS011;5770;44.504;11.346;2023-04-01T06:18:03;9.60;;;5.93;;
11427;SDS011;5770;44.504;11.346;2023-04-01T06:21:00;8.05;;;5.65;;
11427;SDS011;5770;44.504;11.346;2023-04-01T06:23:40;8.45;;;5.30;;
11427;SDS011;5770;44.504;11.346;2023-04-01T06:26:22;8.13;;;4.88;;
11427;SDS011;5770;44.504;11.346;2023-04-01T06:28:56;7.22;;;5.07;;
11427;SDS011;5770;44.504;11.346;2023-04-01T06:31:35;8.70;;;5.30;;
11427;SDS011;5770;44.504;11.346;2023-04-01T06:34:10;8.20;;;5.65;;
11427;SDS011;5770;44.504;11.346;2023-04-01T06:36:53;12.68;;;8.32;;
11427;SDS011;5770;44.504;11.346;2023-04-01T06:39:42;23.67;;;15.80;;
11427;SDS011;5770;44.504;11.346;2023-04-01T06:42:35;22.00;;;17.10;;
11427;SDS011;5770;44.504;11.346;2023-04-01T06:45:15;20.08;;;17.90;;
11427;SDS011;5770;44.504;11.346;2023-04-01T06:47:52;25.70;;;19.55;;
11427;SDS011;5770;44.504;11.346;2023-04-01T06:50:24;22.23;;;19.02;;
11427;SDS011;5770;44.504;11.346;2023-04-01T06:52:55;24.52;;;17.65;;
11427;SDS011;5770;44.504;11.346;2023-04-01T06:55:27;19.75;;;17.30;;
11427;SDS011;5770;44.504;11.346;2023-04-01T06:58:02;24.40;;;17.95;;
11427;SDS011;5770;44.504;11.346;2023-04-01T07:00:32;20.00;;;16.85;;
11427;SDS011;5770;44.504;11.346;2023-04-01T07:03:10;23.20;;;16.58;;
11427;SDS011;5770;44.504;11.346;2023-04-01T07:08:12;20.70;;;16.30;;
11427;SDS011;5770;44.504;11.346;2023-04-01T07:10:45;20.23;;;16.40;;
11427;SDS011;5770;44.504;11.346;2023-04-01T07:13:19;19.30;;;17.25;;
11427;SDS011;5770;44.504;11.346;2023-04-01T07:15:50;19.08;;;17.05;;
11427;SDS011;5770;44.504;11.346;2023-04-01T07:18:23;21.23;;;17.13;;
11427;SDS011;5770;44.504;11.346;2023-04-01T07:20:52;20.55;;;17.17;;
11427;SDS011;5770;44.504;11.346;2023-04-01T07:23:21;26.33;;;16.00;;
11427;SDS011;5770;44.504;11.346;2023-04-01T07:25:51;16.23;;;13.93;;
11427;SDS011;5770;44.504;11.346;2023-04-01T07:28:20;18.90;;;13.40;;
11427;SDS011;5770;44.504;11.346;2023-04-01T07:30:50;13.52;;;12.13;;
11427;SDS011;5770;44.504;11.346;2023-04-01T07:33:20;14.77;;;12.25;;
11427;SDS011;5770;44.504;11.346;2023-04-01T07:35:55;14.77;;;11.35;;
11427;SDS011;5770;44.504;11.346;2023-04-01T07:38:29;16.88;;;11.75;;
11427;SDS011;5770;44.504;11.346;2023-04-01T07:41:07;12.48;;;11.05;;
11427;SDS011;5770;44.504;11.346;2023-04-01T07:43:43;18.95;;;12.45;;
11427;SDS011;5770;44.504;11.346;2023-04-01T07:46:14;14.40;;;11.75;;
11427;SDS011;5770;44.504;11.346;2023-04-01T07:48:50;17.58;;;12.52;;
11427;SDS011;5770;44.504;11.346;2023-04-01T07:51:21;14.95;;;11.70;;
11427;SDS011;5770;44.504;11.346;2023-04-01T07:53:51;14.93;;;12.32;;
11427;SDS011;5770;44.504;11.346;2023-04-01T07:56:25;19.23;;;12.68;;
11427;SDS011;5770;44.504;11.346;2023-04-01T07:58:57;14.10;;;11.88;;
11427;SDS011;5770;44.504;11.346;2023-04-01T08:01:28;19.45;;;12.30;;
11427;SDS011;5770;44.504;11.346;2023-04-01T08:04:05;13.48;;;10.93;;
11427;SDS011;5770;44.504;11.346;2023-04-01T08:06:36;14.60;;;11.90;;
11427;SDS011;5770;44.504;11.346;2023-04-01T08:09:05;19.25;;;11.05;;
11427;SDS011;5770;44.504;11.346;2023-04-01T08:11:41;12.27;;;10.90;;
11427;SDS011;5770;44.504;11.346;2023-04-01T08:14:18;15.18;;;11.05;;
11427;SDS011;5770;44.504;11.346;2023-04-01T08:16:51;14.48;;;10.63;;
11427;SDS011;5770;44.504;11.346;2023-04-01T08:19:28;14.35;;;10.90;;
11427;SDS011;5770;44.504;11.346;2023-04-01T08:21:57;15.98;;;11.73;;
11427;SDS011;5770;44.504;11.346;2023-04-01T08:24:26;13.23;;;10.75;;
11427;SDS011;5770;44.504;11.346;2023-04-01T08:26:55;12.63;;;11.10;;
11427;SDS011;5770;44.504;11.346;2023-04-01T08:29:27;20.05;;;12.38;;
11427;SDS011;5770;44.504;11.346;2023-04-01T08:31:58;16.20;;;11.40;;
11427;SDS011;5770;44.504;11.346;2023-04-01T08:34:28;17.63;;;12.07;;
11427;SDS011;5770;44.504;11.346;2023-04-01T08:36:58;13.95;;;11.27;;
11427;SDS011;5770;44.504;11.346;2023-04-01T08:39:28;14.18;;;11.10;;
11427;SDS011;5770;44.504;11.346;2023-04-01T08:44:47;13.88;;;10.75;;
11427;SDS011;5770;44.504;11.346;2023-04-01T08:47:31;12.25;;;10.85;;
11427;SDS011;5770;44.504;11.346;2023-04-01T08:50:21;14.50;;;10.35;;
11427;SDS011;5770;44.504;11.346;2023-04-01T08:52:51;12.25;;;10.02;;
11427;SDS011;5770;44.504;11.346;2023-04-01T08:55:22;13.13;;;10.52;;
11427;SDS011;5770;44.504;11.346;2023-04-01T08:57:56;11.55;;;10.32;;
11427;SDS011;5770;44.504;11.346;2023-04-01T09:00:31;12.27;;;10.57;;
11427;SDS011;5770;44.504;11.346;2023-04-01T09:03:13;12.23;;;10.38;;
11427;SDS011;5770;44.504;11.346;2023-04-01T09:08:37;12.40;;;10.02;;
11427;SDS011;5770;44.504;11.346;2023-04-01T09:11:22;11.43;;;9.10;;
11427;SDS011;5770;44.504;11.346;2023-04-01T09:16:51;14.40;;;10.20;;
11427;SDS011;5770;44.504;11.346;2023-04-01T09:19:24;12.70;;;9.38;;
11427;SDS011;5770;44.504;11.346;2023-04-01T09:24:39;13.43;;;9.73;;
11427;SDS011;5770;44.504;11.346;2023-04-01T09:27:11;12.73;;;9.70;;
11427;SDS011;5770;44.504;11.346;2023-04-01T09:29:49;11.23;;;8.98;;
11427;SDS011;5770;44.504;11.346;2023-04-01T09:32:25;12.18;;;9.18;;
11427;SDS011;5770;44.504;11.346;2023-04-01T09:34:57;10.90;;;9.63;;
11427;SDS011;5770;44.504;11.346;2023-04-01T09:37:33;10.48;;;9.38;;
11427;SDS011;5770;44.504;11.346;2023-04-01T09:40:14;9.00;;;8.00;;
11427;SDS011;5770;44.504;11.346;2023-04-01T09:42:44;9.35;;;7.40;;
11427;SDS011;5770;44.504;11.346;2023-04-01T09:45:20;13.63;;;8.13;;
11427;SDS011;5770;44.504;11.346;2023-04-01T09:47:54;10.20;;;7.63;;
11427;SDS011;5770;44.504;11.346;2023-04-01T09:50:27;10.70;;;8.05;;
11427;SDS011;5770;44.504;11.346;2023-04-01T09:56:14;8.13;;;7.22;;
11427;SDS011;5770;44.504;11.346;2023-04-01T10:05:09;7.47;;;6.70;;
11427;SDS011;5770;44.504;11.346;2023-04-01T10:08:00;7.18;;;6.45;;
11427;SDS011;5770;44.504;11.346;2023-04-01T10:17:00;8.93;;;5.93;;
11427;SDS011;5770;44.504;11.346;2023-04-01T10:19:46;21.90;;;6.63;;
11427;SDS011;5770;44.504;11.346;2023-04-01T10:22:31;13.60;;;5.95;;
11427;SDS011;5770;44.504;11.346;2023-04-01T10:28:34;8.63;;;5.78;;
11427;SDS011;5770;44.504;11.346;2023-04-01T10:31:14;7.00;;;4.93;;
11427;SDS011;5770;44.504;11.346;2023-04-01T10:34:05;9.18;;;4.95;;
11427;SDS011;5770;44.504;11.346;2023-04-01T10:36:52;7.03;;;4.82;;
11427;SDS011;5770;44.504;11.346;2023-04-01T10:39:38;9.43;;;5.18;;
11427;SDS011;5770;44.504;11.346;2023-04-01T10:42:57;5.85;;;4.78;;
11427;SDS011;5770;44.504;11.346;2023-04-01T10:46:02;7.82;;;5.03;;
11427;SDS011;5770;44.504;11.346;2023-04-01T10:51:34;7.80;;;4.93;;
11427;SDS011;5770;44.504;11.346;2023-04-01T10:54:15;9.10;;;5.43;;
11427;SDS011;5770;44.504;11.346;2023-04-01T10:56:54;6.43;;;4.93;;
11427;SDS011;5770;44.504;11.346;2023-04-01T11:02:42;6.38;;;4.40;;
11427;SDS011;5770;44.504;11.346;2023-04-01T11:05:36;5.22;;;4.22;;
11427;SDS011;5770;44.504;11.346;2023-04-01T11:08:24;7.07;;;4.18;;
11427;SDS011;5770;44.504;11.346;2023-04-01T11:14:20;6.15;;;4.40;;
11427;SDS011;5770;44.504;11.346;2023-04-01T11:17:17;8.23;;;5.20;;
11427;SDS011;5770;44.504;11.346;2023-04-01T11:20:03;4.75;;;4.20;;
11427;SDS011;5770;44.504;11.346;2023-04-01T11:25:51;4.93;;;4.10;;
11427;SDS011;5770;44.504;11.346;2023-04-01T11:31:28;7.03;;;4.07;;
11427;SDS011;5770;44.504;11.346;2023-04-01T11:33:57;5.32;;;3.92;;
11427;SDS011;5770;44.504;11.346;2023-04-01T11:36:32;4.68;;;3.50;;
11427;SDS011;5770;44.504;11.346;2023-04-01T11:39:10;28.15;;;4.93;;
11427;SDS011;5770;44.504;11.346;2023-04-01T11:41:50;14.45;;;3.70;;
11427;SDS011;5770;44.504;11.346;2023-04-01T11:44:19;10.52;;;3.67;;
11427;SDS011;5770;44.504;11.346;2023-04-01T11:49:39;3.83;;;3.20;;
11427;SDS011;5770;44.504;11.346;2023-04-01T11:52:19;5.03;;;3.00;;
11427;SDS011;5770;44.504;11.346;2023-04-01T11:54:55;4.78;;;3.20;;
11427;SDS011;5770;44.504;11.346;2023-04-01T12:00:18;4.32;;;3.30;;
11427;SDS011;5770;44.504;11.346;2023-04-01T12:02:50;4.65;;;2.70;;
11427;SDS011;5770;44.504;11.346;2023-04-01T12:05:31;4.97;;;3.53;;
11427;SDS011;5770;44.504;11.346;2023-04-01T12:08:03;4.13;;;2.97;;
11427;SDS011;5770;44.504;11.346;2023-04-01T12:10:33;4.38;;;2.90;;
11427;SDS011;5770;44.504;11.346;2023-04-01T12:13:07;5.78;;;2.88;;
11427;SDS011;5770;44.504;11.346;2023-04-01T12:15:48;2.95;;;2.45;;
11427;SDS011;5770;44.504;11.346;2023-04-01T12:18:26;3.20;;;2.53;;
11427;SDS011;5770;44.504;11.346;2023-04-01T12:21:02;4.45;;;2.80;;
11427;SDS011;5770;44.504;11.346;2023-04-01T12:23:41;7.18;;;3.03;;
11427;SDS011;5770;44.504;11.346;2023-04-01T12:26:16;3.63;;;2.78;;
11427;SDS011;5770;44.504;11.346;2023-04-01T12:28:49;6.10;;;2.40;;
11427;SDS011;5770;44.504;11.346;2023-04-01T12:31:25;4.53;;;2.78;;
11427;SDS011;5770;44.504;11.346;2023-04-01T12:36:51;3.40;;;2.50;;
11427;SDS011;5770;44.504;11.346;2023-04-01T12:39:33;3.80;;;2.92;;
11427;SDS011;5770;44.504;11.346;2023-04-01T12:42:12;5.43;;;2.30;;
11427;SDS011;5770;44.504;11.346;2023-04-01T12:44:44;3.28;;;2.50;;
11427;SDS011;5770;44.504;11.346;2023-04-01T12:50:26;2.38;;;2.17;;
11427;SDS011;5770;44.504;11.346;2023-04-01T12:53:00;3.90;;;2.40;;
11427;SDS011;5770;44.504;11.346;2023-04-01T12:55:43;2.67;;;2.35;;
11427;SDS011;5770;44.504;11.346;2023-04-01T13:04:35;2.33;;;2.13;;
11427;SDS011;5770;44.504;11.346;2023-04-01T13:07:13;1.73;;;1.63;;
11427;SDS011;5770;44.504;11.346;2023-04-01T13:09:48;2.58;;;2.03;;
11427;SDS011;5770;44.504;11.346;2023-04-01T13:12:29;2.22;;;1.95;;
11427;SDS011;5770;44.504;11.346;2023-04-01T13:15:14;2.78;;;1.92;;
11427;SDS011;5770;44.504;11.346;2023-04-01T13:17:44;4.43;;;2.17;;
11427;SDS011;5770;44.504;11.346;2023-04-01T13:20:16;2.60;;;2.40;;
11427;SDS011;5770;44.504;11.346;2023-04-01T13:22:51;2.55;;;2.35;;
11427;SDS011;5770;44.504;11.346;2023-04-01T13:25:24;4.95;;;2.15;;
11427;SDS011;5770;44.504;11.346;2023-04-01T13:27:56;2.17;;;1.98;;
11427;SDS011;5770;44.504;11.346;2023-04-01T13:30:30;2.45;;;2.00;;
11427;SDS011;5770;44.504;11.346;2023-04-01T13:33:06;3.33;;;1.80;;
11427;SDS011;5770;44.504;11.346;2023-04-01T13:35:42;1.70;;;1.60;;
11427;SDS011;5770;44.504;11.346;2023-04-01T13:41:13;2.90;;;1.80;;
11427;SDS011;5770;44.504;11.346;2023-04-01T13:43:43;4.70;;;1.90;;
11427;SDS011;5770;44.504;11.346;2023-04-01T13:46:20;3.80;;;2.00;;
11427;SDS011;5770;44.504;11.346;2023-04-01T13:49:11;1.33;;;1.23;;
11427;SDS011;5770;44.504;11.346;2023-04-01T13:55:10;1.85;;;1.38;;
11427;SDS011;5770;44.504;11.346;2023-04-01T13:57:50;2.15;;;1.95;;
11427;SDS011;5770;44.504;11.346;2023-04-01T14:00:23;2.92;;;1.33;;
11427;SDS011;5770;44.504;11.346;2023-04-01T14:03:12;1.30;;;1.20;;
11427;SDS011;5770;44.504;11.346;2023-04-01T14:05:44;11.45;;;1.92;;
11427;SDS011;5770;44.504;11.346;2023-04-01T14:08:17;1.90;;;1.65;;
11427;SDS011;5770;44.504;11.346;2023-04-01T14:10:49;1.38;;;1.23;;
11427;SDS011;5770;44.504;11.346;2023-04-01T14:13:23;1.98;;;1.63;;
11427;SDS011;5770;44.504;11.346;2023-04-01T14:16:11;7.28;;;1.65;;
11427;SDS011;5770;44.504;11.346;2023-04-01T14:18:47;1.75;;;1.35;;
11427;SDS011;5770;44.504;11.346;2023-04-01T14:21:25;3.65;;;1.70;;
11427;SDS011;5770;44.504;11.346;2023-04-01T14:24:03;2.13;;;1.90;;
11427;SDS011;5770;44.504;11.346;2023-04-01T14:29:32;4.53;;;2.00;;
11427;SDS011;5770;44.504;11.346;2023-04-01T14:32:14;3.92;;;2.00;;
11427;SDS011;5770;44.504;11.346;2023-04-01T14:34:59;3.47;;;2.03;;
11427;SDS011;5770;44.504;11.346;2023-04-01T14:37:47;2.13;;;1.95;;
11427;SDS011;5770;44.504;11.346;2023-04-01T14:40:55;5.78;;;2.38;;
11427;SDS011;5770;44.504;11.346;2023-04-01T14:43:28;3.03;;;2.70;;
11427;SDS011;5770;44.504;11.346;2023-04-01T14:46:28;5.20;;;3.45;;
11427;SDS011;5770;44.504;11.346;2023-04-01T14:48:59;3.75;;;2.30;;
11427;SDS011;5770;44.504;11.346;2023-04-01T14:51:29;2.72;;;2.17;;
11427;SDS011;5770;44.504;11.346;2023-04-01T14:54:04;2.88;;;2.10;;
11427;SDS011;5770;44.504;11.346;2023-04-01T14:56:36;3.08;;;2.13;;
11427;SDS011;5770;44.504;11.346;2023-04-01T14:59:13;2.53;;;2.13;;
11427;SDS011;5770;44.504;11.346;2023-04-01T15:01:47;10.15;;;2.60;;
11427;SDS011;5770;44.504;11.346;2023-04-01T15:04:31;2.60;;;2.40;;
11427;SDS011;5770;44.504;11.346;2023-04-01T15:07:21;3.03;;;2.03;;
11427;SDS011;5770;44.504;11.346;2023-04-01T15:10:06;3.13;;;2.17;;
11427;SDS011;5770;44.504;11.346;2023-04-01T15:12:40;3.08;;;2.20;;
11427;SDS011;5770;44.504;11.346;2023-04-01T15:15:20;4.15;;;2.20;;
11427;SDS011;5770;44.504;11.346;2023-04-01T15:17:55;2.63;;;2.33;;
11427;SDS011;5770;44.504;11.346;2023-04-01T15:20:43;2.00;;;1.85;;
11427;SDS011;5770;44.504;11.346;2023-04-01T15:23:18;5.55;;;2.03;;
11427;SDS011;5770;44.504;11.346;2023-04-01T15:25:54;2.78;;;2.30;;
11427;SDS011;5770;44.504;11.346;2023-04-01T15:28:38;2.55;;;2.10;;
11427;SDS011;5770;44.504;11.346;2023-04-01T15:31:14;6.75;;;2.13;;
11427;SDS011;5770;44.504;11.346;2023-04-01T15:33:46;2.55;;;1.85;;
11427;SDS011;5770;44.504;11.346;2023-04-01T15:36:18;2.50;;;1.80;;
11427;SDS011;5770;44.504;11.346;2023-04-01T15:38:47;6.72;;;2.10;;
11427;SDS011;5770;44.504;11.346;2023-04-01T15:41:20;3.05;;;1.77;;
11427;SDS011;5770;44.504;11.346;2023-04-01T15:43:50;2.55;;;1.77;;
11427;SDS011;5770;44.504;11.346;2023-04-01T15:46:24;2.05;;;1.75;;
11427;SDS011;5770;44.504;11.346;2023-04-01T15:49:05;5.88;;;2.00;;
11427;SDS011;5770;44.504;11.346;2023-04-01T15:54:40;3.58;;;1.88;;
11427;SDS011;5770;44.504;11.346;2023-04-01T15:57:18;2.47;;;2.05;;
11427;SDS011;5770;44.504;11.346;2023-04-01T15:59:53;4.35;;;2.60;;
11427;SDS011;5770;44.504;11.346;2023-04-01T16:02:22;10.70;;;2.67;;
11427;SDS011;5770;44.504;11.346;2023-04-01T16:04:59;4.90;;;2.63;;
11427;SDS011;5770;44.504;11.346;2023-04-01T16:10:21;3.75;;;2.10;;
11427;SDS011;5770;44.504;11.346;2023-04-01T16:13:06;5.43;;;2.38;;
11427;SDS011;5770;44.504;11.346;2023-04-01T16:15:50;7.28;;;2.15;;
11427;SDS011;5770;44.504;11.346;2023-04-01T16:18:26;6.10;;;2.67;;
11427;SDS011;5770;44.504;11.346;2023-04-01T16:20:57;6.43;;;2.55;;
11427;SDS011;5770;44.504;11.346;2023-04-01T16:23:30;5.05;;;2.60;;
11427;SDS011;5770;44.504;11.346;2023-04-01T16:26:05;8.18;;;2.55;;
11427;SDS011;5770;44.504;11.346;2023-04-01T16:28:35;5.72;;;2.30;;
11427;SDS011;5770;44.504;11.346;2023-04-01T16:31:06;5.57;;;2.85;;
11427;SDS011;5770;44.504;11.346;2023-04-01T16:33:38;6.22;;;2.90;;
11427;SDS011;5770;44.504;11.346;2023-04-01T16:36:10;10.95;;;2.72;;
11427;SDS011;5770;44.504;11.346;2023-04-01T16:38:40;3.47;;;2.00;;
11427;SDS011;5770;44.504;11.346;2023-04-01T16:41:14;5.85;;;2.10;;
11427;SDS011;5770;44.504;11.346;2023-04-01T16:43:45;4.43;;;1.60;;